Time;durP1;ratioP1;P1;durP2;ratioP2;P2;SDS_P1;SDS_P2;PMS_P1;PMS_P2;Temp;Humidity;BMP_temperature;BMP_pressure;BME280_temperature;BME280_humidity;BME280_pressure;Samples;Min_cycle;Max_cycle;Signal;HPM_P1;HPM_P2
2022/10/06 00:02:03;;;;;;;;;;;;;;;;;;4749506;29;20273;-86
2022/10/06 02:26:29;;;;;;;;;;;;;;;;;;5708839;24;20155;-87
2022/10/06 03:11:10;;;;;;;;;;;;;;;;;;;;;
2022/10/06 03:16:56;;;;;;;;;;;;;;;;;;;;;
2022/10/06 03:19:59;;;;;;;;;;;;;;;;;;;;;
2022/10/06 04:38:41;;;;;;;;;;;;;;;;;;4748090;29;19963;-86
2022/10/06 04:41:22;;;;;;;;;;;;;;;;;;4753148;29;19929;-86
2022/10/06 04:51:48;;;;;;;;;;;;;;;;;;5428053;24;19983;-83
2022/10/06 05:04:57;;;;;;;;;;;;;;;;;;4903535;24;19948;-85
2022/10/06 05:59:33;;;;;;;;;;;;;;;;;;5609980;24;19940;-84
2022/10/06 06:43:41;;;;;;;;;;;;;;;;;;5818519;24;19923;-83
2022/10/06 06:46:10;;;;;;;;;;;;;;;;;;4744086;29;19930;-84
2022/10/06 06:48:43;;;;;;;;;;;;;;;;;;4731304;30;20082;-84
2022/10/06 06:51:34;;;;;;;;;;;;;;;;;;4754431;30;21839;-84
2022/10/06 06:54:06;;;;;;;;;;;;;;;;;;4725375;30;19976;-84
2022/10/06 06:56:47;;;;;;;;;;;;;;;;;;4750753;30;19987;-84
2022/10/06 07:02:30;;;;;;;;;;;;;;;;;;4749986;30;19945;-84
2022/10/06 07:05:25;;;;;;;;;;;;;;;;;;;;;
2022/10/06 07:10:41;;;;;;;;;;;;;;;;;;4771111;29;20067;-83
2022/10/06 07:13:19;;;;;;;;;;;;;;;;;;4752467;30;19976;-83
2022/10/06 07:29:52;;;;;;;;;;;;;;;;;;4961228;24;19937;-95
2022/10/06 07:32:20;;;;;;;;;;;;;;;;;;4751517;29;20071;-95
2022/10/06 07:34:49;;;;;;;;;;;;;;;;;;4755714;29;19935;-95
2022/10/06 07:37:17;;;;;;;;;;;;;;;;;;4762126;29;19979;-94
2022/10/06 07:48:52;;;;;;;;;;;;;;;;;;5074809;24;20270;-84
2022/10/06 07:51:26;;;;;;;;;;;;;;;;;;4769538;29;20480;-83
2022/10/06 07:54:00;;;;;;;;;;;;;;;;;;4758038;29;19929;-84
2022/10/06 07:59:16;;;;;;;;;;;;;;;;;;4772241;29;19966;-84
2022/10/06 08:01:51;;;;;;;;;;;;;;;;;;4770210;29;19941;-84
2022/10/06 08:04:20;;;;;;;;;;;;;;;;;;4789284;29;19936;-84
2022/10/06 08:06:53;;;;;;;;;;;;;;;;;;4762169;29;19933;-88
2022/10/06 08:09:48;;;;;;;;;;;;;;;;;;4777127;29;20071;-87
2022/10/06 08:12:36;;;;;;;;;;;;;;;;;;4766235;29;19934;-88
2022/10/06 08:15:17;;;;;;;;;;;;;;;;;;4756498;29;20415;-87
2022/10/06 08:20:50;;;;;;;;;;;;;;;;;;4788555;29;19969;-88
2022/10/06 08:26:05;;;;;;;;;;;;;;;;;;4749358;29;19934;-87
2022/10/06 08:31:44;;;;;;;;;;;;;;;;;;4724625;30;20083;-88
2022/10/06 08:34:20;;;;;;;;;;;;;;;;;;4719391;30;19936;-88
2022/10/06 08:36:56;;;;;;;;;;;;;;;;;;;;;
2022/10/06 09:14:23;;;;;;;;;;;;;;;;;;4594530;30;19940;-88
2022/10/06 09:17:09;;;;;;;;;;;;;;;;;;5252633;24;19930;-83
2022/10/06 09:19:53;;;;;;;;;;;;;;;;;;4770170;29;19940;-83
2022/10/06 10:10:38;;;;;;;;;;;;;;;;;;5074355;24;19936;-83
2022/10/06 10:16:49;;;;;;;;;;;;;;;;;;4744945;29;20370;-83
2022/10/06 10:22:06;;;;;;;;;;;;;;;;;;4768482;29;20732;-83
2022/10/06 10:24:47;;;;;;;;;;;;;;;;;;4765374;29;19929;-83
2022/10/06 10:27:35;;;;;;;;;;;;;;;;;;4744890;30;20321;-83
2022/10/06 10:30:08;;;;;;;;;;;;;;;;;;4713444;30;20489;-83
2022/10/06 10:32:49;;;;;;;;;;;;;;;;;;4696303;30;19934;-83
2022/10/06 10:35:22;;;;;;;;;;;;;;;;;;4699408;30;20085;-83
2022/10/06 10:41:08;;;;;;;;;;;;;;;;;;4708904;30;24716;-84
2022/10/06 10:46:54;;;;;;;;;;;;;;;;;;4715052;30;19963;-84
2022/10/06 11:23:03;;;;;;;;;;;;;;;;;;;;;
2022/10/06 11:26:18;;;;;;;;;;;;;;;;;;;;;
2022/10/06 11:32:17;;;;;;;;;;;;;;;;;;4636670;30;19985;-89
2022/10/06 11:34:52;;;;;;;;;;;;;;;;;;4659322;30;19931;-87
2022/10/06 11:37:26;;;;;;;;;;;;;;;;;;4677015;30;19935;-88
2022/10/06 13:50:12;;;;;;;;;;;;;;;;;;5541467;24;20530;-84
2022/10/06 14:04:58;;;;;;;;;;;;;;;;;;4760258;29;20025;-84
2022/10/06 14:07:57;;;;;;;;;;;;;;;;;;4675469;30;19975;-84
2022/10/06 14:29:01;;;;;;;;;;;;;;;;;;4674634;30;19937;-83
2022/10/06 14:31:14;;;;;;;;;;;;;;;;;;4651556;30;19931;-83
2022/10/06 14:48:15;;;;;;;;;;;;;;;;;;4682998;30;20310;-87
2022/10/06 14:50:52;;;;;;;;;;;;;;;;;;;;;
2022/10/06 14:59:08;;;;;;;;;;;;;;;;;;4767611;29;19983;-86
2022/10/06 15:14:09;;;;;;;;;;;;;;;;;;4695327;30;19934;-85
2022/10/06 15:16:58;;;;;;;;;;;;;;;;;;4620637;30;20410;-86
2022/10/06 15:29:47;;;;;;;;;;;;;;;;;;4709326;30;19926;-86
2022/10/06 15:32:13;;;;;;;;;;;;;;;;;;4701186;29;19937;-87
2022/10/06 15:37:38;;;;;;;;;;;;;;;;;;4741318;29;19930;-86
2022/10/06 15:40:17;;;;;;;;;;;;;;;;;;4735052;29;19930;-86
2022/10/06 15:42:55;;;;;;;;;;;;;;;;;;4726988;29;19932;-86
2022/10/06 15:51:47;;;;;;;;;;;;;;;;;;;;;
2022/10/06 15:54:25;;;;;;;;;;;;;;;;;;4717589;30;20028;-86
2022/10/06 16:00:22;;;;;;;;;;;;;;;;;;4655779;30;19938;-86
2022/10/06 16:06:27;;;;;;;;;;;;;;;;;;;;;
2022/10/06 16:09:24;;;;;;;;;;;;;;;;;;4711747;30;19934;-86
2022/10/06 16:12:03;;;;;;;;;;;;;;;;;;;;;
2022/10/06 16:14:32;;;;;;;;;;;;;;;;;;4709180;30;19926;-86
2022/10/06 16:17:04;;;;;;;;;;;;;;;;;;4684689;30;19931;-87
2022/10/06 16:22:50;;;;;;;;;;;;;;;;;;;;;
2022/10/06 16:25:40;;;;;;;;;;;;;;;;;;4679838;30;20005;-87
2022/10/06 16:44:08;;;;;;;;;;;;;;;;;;4658478;30;20101;-86
2022/10/06 16:47:04;;;;;;;;;;;;;;;;;;4654548;30;19974;-87
2022/10/06 16:55:53;;;;;;;;;;;;;;;;;;4665112;30;20132;-87
2022/10/06 16:58:28;;;;;;;;;;;;;;;;;;4609312;30;19941;-90
2022/10/06 17:04:18;;;;;;;;;;;;;;;;;;4657736;30;19930;-87
2022/10/06 17:07:13;;;;;;;;;;;;;;;;;;4659161;30;20334;-86
2022/10/06 17:09:47;;;;;;;;;;;;;;;;;;4648242;30;20076;-88
2022/10/06 17:15:42;;;;;;;;;;;;;;;;;;4655017;30;20362;-87
2022/10/06 17:18:10;;;;;;;;;;;;;;;;;;4642258;30;20801;-85
2022/10/06 17:21:03;;;;;;;;;;;;;;;;;;4652366;30;19933;-87
2022/10/06 17:23:43;;;;;;;;;;;;;;;;;;4683575;30;19934;-87
2022/10/06 17:28:54;;;;;;;;;;;;;;;;;;5575308;24;20430;-92
2022/10/06 17:31:20;;;;;;;;;;;;;;;;;;4748078;29;19955;-92
2022/10/06 17:33:52;;;;;;;;;;;;;;;;;;4751803;29;20689;-96
2022/10/06 17:36:21;;;;;;;;;;;;;;;;;;4741294;29;20027;-92
2022/10/06 17:38:47;;;;;;;;;;;;;;;;;;4730656;29;19933;-93
2022/10/06 17:41:15;;;;;;;;;;;;;;;;;;4743918;29;23409;-93
2022/10/06 17:43:45;;;;;;;;;;;;;;;;;;4744140;29;19925;-93
2022/10/06 17:46:14;;;;;;;;;;;;;;;;;;4761253;29;20413;-92
2022/10/06 17:48:43;;;;;;;;;;;;;;;;;;4742424;29;19929;-93
2022/10/06 17:51:09;;;;;;;;;;;;;;;;;;4741593;29;20016;-92
2022/10/06 17:53:36;;;;;;;;;;;;;;;;;;4757023;29;19930;-94
2022/10/06 17:56:02;;;;;;;;;;;;;;;;;;4722578;29;20386;-94
2022/10/06 17:58:29;;;;;;;;;;;;;;;;;;4725777;29;20401;-93
2022/10/06 18:01:02;;;;;;;;;;;;;;;;;;4720882;29;19934;-94
2022/10/06 18:03:28;;;;;;;;;;;;;;;;;;4731639;29;19994;-95
2022/10/06 18:06:02;;;;;;;;;;;;;;;;;;4732933;29;20351;-94
2022/10/06 18:08:30;;;;;;;;;;;;;;;;;;4740824;29;19934;-93
2022/10/06 18:13:41;;;;;;;;;;;;;;;;;;4741011;29;20472;-93
2022/10/06 18:16:07;;;;;;;;;;;;;;;;;;4729312;29;20954;-94
2022/10/06 18:18:35;;;;;;;;;;;;;;;;;;4744961;29;19933;-93
2022/10/06 18:21:02;;;;;;;;;;;;;;;;;;4733402;29;19936;-91
2022/10/06 18:23:28;;;;;;;;;;;;;;;;;;4736443;29;19936;-93
2022/10/06 18:25:54;;;;;;;;;;;;;;;;;;4724004;29;19929;-93
2022/10/06 18:28:23;;;;;;;;;;;;;;;;;;4738842;29;19925;-93
2022/10/06 18:30:51;;;;;;;;;;;;;;;;;;4725493;30;19938;-94
2022/10/06 18:33:17;;;;;;;;;;;;;;;;;;4742969;30;19945;-93
2022/10/06 18:35:43;;;;;;;;;;;;;;;;;;4725695;30;19996;-92
2022/10/06 18:38:12;;;;;;;;;;;;;;;;;;4710367;30;19934;-93
2022/10/06 18:40:41;;;;;;;;;;;;;;;;;;4723227;30;19941;-92
2022/10/06 18:43:07;;;;;;;;;;;;;;;;;;4731061;30;20733;-92
2022/10/06 18:51:17;;;;;;;;;;;;;;;;;;4709852;30;20710;-92
2022/10/06 18:53:44;;;;;;;;;;;;;;;;;;4725366;30;19997;-92
2022/10/06 18:56:12;;;;;;;;;;;;;;;;;;4710507;30;20834;-93
2022/10/06 18:58:38;;;;;;;;;;;;;;;;;;4725384;30;20012;-92
2022/10/06 19:01:04;;;;;;;;;;;;;;;;;;4735449;30;20469;-93
2022/10/06 19:03:30;;;;;;;;;;;;;;;;;;4741873;30;19930;-92
2022/10/06 19:05:59;;;;;;;;;;;;;;;;;;4735884;30;19932;-93
2022/10/06 19:08:25;;;;;;;;;;;;;;;;;;4723453;30;19933;-92
2022/10/06 19:13:47;;;;;;;;;;;;;;;;;;4741614;30;20329;-92
2022/10/06 19:16:14;;;;;;;;;;;;;;;;;;4737497;30;19980;-92
2022/10/06 19:18:40;;;;;;;;;;;;;;;;;;4716659;30;19936;-92
2022/10/06 19:21:06;;;;;;;;;;;;;;;;;;4715987;30;22074;-92
2022/10/06 19:23:32;;;;;;;;;;;;;;;;;;4735896;30;19930;-93
2022/10/06 19:25:58;;;;;;;;;;;;;;;;;;4717263;30;19933;-92
2022/10/06 19:28:27;;;;;;;;;;;;;;;;;;4734066;30;19934;-91
2022/10/06 19:30:56;;;;;;;;;;;;;;;;;;4732986;29;20299;-91
2022/10/06 19:33:22;;;;;;;;;;;;;;;;;;4725322;29;20361;-91
2022/10/06 19:35:49;;;;;;;;;;;;;;;;;;4717176;29;21539;-91
2022/10/06 19:38:15;;;;;;;;;;;;;;;;;;4740970;29;19936;-92
2022/10/06 19:40:41;;;;;;;;;;;;;;;;;;4728161;29;19930;-91
2022/10/06 19:43:07;;;;;;;;;;;;;;;;;;4738611;29;21741;-92
2022/10/06 19:45:39;;;;;;;;;;;;;;;;;;4728617;29;20020;-92
2022/10/06 19:48:09;;;;;;;;;;;;;;;;;;4726351;29;19936;-92
2022/10/06 19:50:35;;;;;;;;;;;;;;;;;;4752556;29;20033;-92
2022/10/06 19:53:03;;;;;;;;;;;;;;;;;;4730723;29;19934;-92
2022/10/06 19:55:29;;;;;;;;;;;;;;;;;;4726664;29;19994;-93
2022/10/06 19:57:55;;;;;;;;;;;;;;;;;;4743582;29;19964;-92
2022/10/06 20:00:21;;;;;;;;;;;;;;;;;;4740643;29;20035;-92
2022/10/06 20:02:47;;;;;;;;;;;;;;;;;;4725620;29;20354;-94
2022/10/06 20:05:13;;;;;;;;;;;;;;;;;;4726464;29;20076;-92
2022/10/06 20:07:39;;;;;;;;;;;;;;;;;;4741065;29;19933;-93
2022/10/06 20:10:05;;;;;;;;;;;;;;;;;;4743778;29;19933;-92
2022/10/06 20:12:33;;;;;;;;;;;;;;;;;;4728811;29;20387;-93
2022/10/06 20:14:59;;;;;;;;;;;;;;;;;;4731732;29;19933;-92
2022/10/06 20:17:27;;;;;;;;;;;;;;;;;;4748760;29;19940;-93
2022/10/06 20:19:55;;;;;;;;;;;;;;;;;;4743656;29;20377;-93
2022/10/06 20:22:30;;;;;;;;;;;;;;;;;;4747264;29;20000;-92
2022/10/06 20:24:56;;;;;;;;;;;;;;;;;;4732136;29;19976;-93
2022/10/06 20:27:22;;;;;;;;;;;;;;;;;;4748001;29;19929;-93
2022/10/06 20:29:48;;;;;;;;;;;;;;;;;;4736965;29;20361;-92
2022/10/06 20:32:14;;;;;;;;;;;;;;;;;;4734035;29;19929;-92
2022/10/06 20:34:44;;;;;;;;;;;;;;;;;;4735142;29;20700;-91
2022/10/06 20:37:10;;;;;;;;;;;;;;;;;;4737030;29;19933;-92
2022/10/06 20:42:26;;;;;;;;;;;;;;;;;;4746400;29;20417;-93
2022/10/06 20:44:52;;;;;;;;;;;;;;;;;;4745183;29;19934;-92
2022/10/06 20:47:20;;;;;;;;;;;;;;;;;;4755548;30;19934;-92
2022/10/06 20:49:53;;;;;;;;;;;;;;;;;;4747779;30;19936;-92
2022/10/06 20:52:25;;;;;;;;;;;;;;;;;;4729362;29;19945;-92
2022/10/06 20:54:51;;;;;;;;;;;;;;;;;;4747690;29;19948;-92
2022/10/06 20:57:17;;;;;;;;;;;;;;;;;;4735464;30;20438;-93
2022/10/06 20:59:44;;;;;;;;;;;;;;;;;;4732167;29;21859;-92
2022/10/06 21:02:10;;;;;;;;;;;;;;;;;;4736676;29;19941;-92
2022/10/06 21:04:37;;;;;;;;;;;;;;;;;;4732017;29;19934;-92
2022/10/06 21:07:04;;;;;;;;;;;;;;;;;;4730747;29;19932;-92
2022/10/06 21:09:30;;;;;;;;;;;;;;;;;;4736253;29;20586;-92
2022/10/06 21:11:56;;;;;;;;;;;;;;;;;;4724293;29;19930;-92
2022/10/06 21:14:22;;;;;;;;;;;;;;;;;;4744789;29;20733;-92
2022/10/06 21:16:48;;;;;;;;;;;;;;;;;;4739701;29;19933;-91
2022/10/06 21:19:14;;;;;;;;;;;;;;;;;;4732110;29;19940;-92
2022/10/06 21:21:41;;;;;;;;;;;;;;;;;;4724261;29;19987;-92
2022/10/06 21:24:10;;;;;;;;;;;;;;;;;;4723126;29;22545;-92
2022/10/06 21:26:41;;;;;;;;;;;;;;;;;;4745791;29;20482;-92
2022/10/06 21:29:07;;;;;;;;;;;;;;;;;;4737816;29;20460;-91
2022/10/06 21:31:33;;;;;;;;;;;;;;;;;;4725828;29;20377;-92
2022/10/06 21:34:00;;;;;;;;;;;;;;;;;;4732429;29;20021;-92
2022/10/06 21:36:26;;;;;;;;;;;;;;;;;;4732947;29;19940;-92
2022/10/06 21:38:52;;;;;;;;;;;;;;;;;;4722596;29;20013;-93
2022/10/06 21:41:30;;;;;;;;;;;;;;;;;;4737739;29;19933;-92
2022/10/06 21:43:56;;;;;;;;;;;;;;;;;;4738519;29;20597;-92
2022/10/06 21:46:22;;;;;;;;;;;;;;;;;;4747230;29;19930;-91
2022/10/06 21:48:49;;;;;;;;;;;;;;;;;;4724738;29;20294;-92
2022/10/06 21:51:17;;;;;;;;;;;;;;;;;;4742761;29;19937;-92
2022/10/06 21:53:43;;;;;;;;;;;;;;;;;;4729932;29;19930;-91
2022/10/06 21:56:09;;;;;;;;;;;;;;;;;;4738563;29;19934;-92
2022/10/06 21:58:35;;;;;;;;;;;;;;;;;;4724539;29;19928;-92
2022/10/06 22:01:01;;;;;;;;;;;;;;;;;;4714350;29;20032;-92
2022/10/06 22:03:27;;;;;;;;;;;;;;;;;;4731122;29;19925;-91
2022/10/06 22:05:54;;;;;;;;;;;;;;;;;;4721525;29;19976;-92
2022/10/06 22:08:20;;;;;;;;;;;;;;;;;;4734551;29;19930;-92
2022/10/06 22:10:49;;;;;;;;;;;;;;;;;;4722284;29;20400;-92
2022/10/06 22:13:14;;;;;;;;;;;;;;;;;;4740891;29;19934;-92
2022/10/06 22:15:40;;;;;;;;;;;;;;;;;;4739079;29;19933;-91
2022/10/06 22:18:09;;;;;;;;;;;;;;;;;;4742998;29;21341;-92
2022/10/06 22:20:35;;;;;;;;;;;;;;;;;;4750796;29;19979;-92
2022/10/06 22:23:01;;;;;;;;;;;;;;;;;;4729937;29;19945;-92
2022/10/06 22:25:27;;;;;;;;;;;;;;;;;;4727971;29;20247;-92
2022/10/06 22:27:53;;;;;;;;;;;;;;;;;;4730801;29;19990;-92
2022/10/06 22:30:22;;;;;;;;;;;;;;;;;;4754975;29;19994;-90
2022/10/06 22:32:50;;;;;;;;;;;;;;;;;;4729090;29;19975;-91
2022/10/06 22:35:16;;;;;;;;;;;;;;;;;;4730570;29;20397;-93
2022/10/06 22:37:42;;;;;;;;;;;;;;;;;;4729799;29;19934;-92
2022/10/06 22:40:08;;;;;;;;;;;;;;;;;;4715834;29;20028;-93
2022/10/06 22:42:37;;;;;;;;;;;;;;;;;;4724173;29;19934;-92
2022/10/06 22:45:03;;;;;;;;;;;;;;;;;;4721293;29;19936;-94
2022/10/06 22:47:29;;;;;;;;;;;;;;;;;;4737057;29;19926;-93
2022/10/06 22:49:55;;;;;;;;;;;;;;;;;;4722966;29;19982;-93
2022/10/06 22:52:21;;;;;;;;;;;;;;;;;;4746604;29;20030;-93
2022/10/06 22:54:47;;;;;;;;;;;;;;;;;;4721220;29;20914;-93
2022/10/06 22:57:13;;;;;;;;;;;;;;;;;;4729041;30;20398;-93
2022/10/06 22:59:39;;;;;;;;;;;;;;;;;;4740485;30;20469;-93
2022/10/06 23:02:05;;;;;;;;;;;;;;;;;;4737446;29;19929;-92
2022/10/06 23:04:34;;;;;;;;;;;;;;;;;;4736778;29;20676;-93
2022/10/06 23:07:00;;;;;;;;;;;;;;;;;;4710978;29;23324;-93
2022/10/06 23:09:26;;;;;;;;;;;;;;;;;;4733566;29;19929;-93
2022/10/06 23:11:52;;;;;;;;;;;;;;;;;;4735554;29;19944;-93
2022/10/06 23:14:20;;;;;;;;;;;;;;;;;;4732944;30;22388;-93
2022/10/06 23:16:49;;;;;;;;;;;;;;;;;;4744717;29;20382;-93
2022/10/06 23:19:15;;;;;;;;;;;;;;;;;;4739909;29;19925;-92
2022/10/06 23:21:41;;;;;;;;;;;;;;;;;;4739726;29;19937;-92
2022/10/06 23:24:07;;;;;;;;;;;;;;;;;;4735018;29;21103;-91
2022/10/06 23:26:35;;;;;;;;;;;;;;;;;;4738160;29;19933;-91
2022/10/06 23:29:03;;;;;;;;;;;;;;;;;;4739240;29;20073;-92
2022/10/06 23:31:29;;;;;;;;;;;;;;;;;;4753723;29;19933;-92
2022/10/06 23:33:55;;;;;;;;;;;;;;;;;;4740627;29;19932;-93
2022/10/06 23:36:21;;;;;;;;;;;;;;;;;;4738920;29;20707;-91
2022/10/06 23:38:47;;;;;;;;;;;;;;;;;;4725253;29;19952;-92
2022/10/06 23:41:13;;;;;;;;;;;;;;;;;;4742134;29;20589;-91
2022/10/06 23:43:39;;;;;;;;;;;;;;;;;;4743415;29;19933;-92
2022/10/06 23:46:05;;;;;;;;;;;;;;;;;;4725042;29;20002;-92
2022/10/06 23:48:31;;;;;;;;;;;;;;;;;;4723863;30;20772;-93
2022/10/06 23:50:57;;;;;;;;;;;;;;;;;;4723221;29;19960;-93
2022/10/06 23:53:23;;;;;;;;;;;;;;;;;;4726660;29;19976;-93
2022/10/06 23:55:48;;;;;;;;;;;;;;;;;;4739764;29;20630;-93
2022/10/06 23:58:15;;;;;;;;;;;;;;;;;;4723035;29;19982;-93
